Time;durP1;ratioP1;P1;durP2;ratioP2;P2;SDS_P1;SDS_P2;PMS_P1;PMS_P2;Temp;Humidity;BMP_temperature;BMP_pressure;BME280_temperature;BME280_humidity;BME280_pressure;Samples;Min_cycle;Max_cycle;Signal;HPM_P1;HPM_P2
2021/12/13 00:01:10;;;;;;;266.50;25.63;;;8.60;99.90;;;;;;5060038;28;20187;-42
2021/12/13 00:03:43;;;;;;;231.97;23.60;;;8.60;99.90;;;;;;5062410;28;20206;-43
2021/12/13 00:06:17;;;;;;;256.57;26.60;;;8.60;99.90;;;;;;5064914;28;20201;-46
2021/12/13 00:08:53;;;;;;;277.60;28.00;;;8.60;99.90;;;;;;5063488;28;20226;-43
2021/12/13 00:11:23;;;;;;;316.73;27.90;;;8.60;99.90;;;;;;5071142;28;20597;-44
2021/12/13 00:13:53;;;;;;;165.30;24.60;;;8.60;99.90;;;;;;5062333;28;20198;-45
2021/12/13 00:16:27;;;;;;;268.17;27.23;;;8.60;99.90;;;;;;5066039;28;20205;-43
2021/12/13 00:18:57;;;;;;;261.03;26.87;;;8.60;99.90;;;;;;5060636;28;20218;-43
2021/12/13 00:21:31;;;;;;;377.13;29.70;;;8.60;99.90;;;;;;5063290;28;20199;-42
2021/12/13 00:24:01;;;;;;;320.37;30.47;;;8.60;99.90;;;;;;5051298;28;20671;-45
2021/12/13 00:26:30;;;;;;;90.87;21.83;;;8.60;99.90;;;;;;5064321;28;20201;-44
2021/12/13 00:28:58;;;;;;;208.47;26.83;;;8.60;99.90;;;;;;5067019;28;20222;-43
2021/12/13 00:31:36;;;;;;;276.73;27.60;;;8.60;99.90;;;;;;5061816;28;20218;-45
2021/12/13 00:34:30;;;;;;;182.53;26.17;;;8.70;99.90;;;;;;5064244;28;20218;-44
2021/12/13 00:37:01;;;;;;;328.37;30.20;;;8.70;99.90;;;;;;5064991;28;20659;-43
2021/12/13 00:39:32;;;;;;;280.80;31.20;;;8.70;99.90;;;;;;5058563;28;20229;-43
2021/12/13 00:42:02;;;;;;;285.23;32.20;;;8.60;99.90;;;;;;5063417;28;20202;-43
2021/12/13 00:44:33;;;;;;;254.80;27.70;;;8.70;99.90;;;;;;5067261;28;20324;-43
2021/12/13 00:47:06;;;;;;;87.13;23.10;;;8.70;99.90;;;;;;5059093;28;20213;-43
2021/12/13 00:49:33;;;;;;;122.17;23.77;;;8.70;99.90;;;;;;5080087;28;20709;-43
2021/12/13 00:52:02;;;;;;;202.33;27.97;;;8.70;99.90;;;;;;5062360;28;20206;-43
2021/12/13 00:54:33;;;;;;;89.97;23.13;;;8.70;99.90;;;;;;5062945;28;20198;-43
2021/12/13 00:57:30;;;;;;;133.07;23.30;;;8.70;99.90;;;;;;5054597;28;20194;-42
2021/12/13 01:00:03;;;;;;;113.60;21.83;;;8.70;99.90;;;;;;5044644;28;20245;-43
2021/12/13 01:02:39;;;;;;;60.63;20.00;;;8.70;99.90;;;;;;5063317;28;20217;-43
2021/12/13 01:05:09;;;;;;;90.60;21.77;;;8.70;99.90;;;;;;5061877;28;20257;-43
2021/12/13 01:08:05;;;;;;;66.77;20.33;;;8.70;99.90;;;;;;5071228;28;20198;-43
2021/12/13 01:11:09;;;;;;;66.43;19.57;;;8.70;99.90;;;;;;5077228;28;20225;-43
2021/12/13 01:13:45;;;;;;;48.73;17.57;;;8.70;99.90;;;;;;5069681;28;20202;-43
2021/12/13 01:16:32;;;;;;;54.07;17.33;;;8.70;99.90;;;;;;5065745;28;20190;-42
2021/12/13 01:19:26;;;;;;;55.33;17.37;;;8.70;99.90;;;;;;5061135;28;20301;-45
2021/12/13 01:22:02;;;;;;;48.40;16.80;;;8.70;99.90;;;;;;5073477;28;20204;-43
2021/12/13 01:25:03;;;;;;;60.23;17.00;;;8.70;99.90;;;;;;5082163;28;20225;-43
2021/12/13 01:27:31;;;;;;;52.27;17.00;;;8.70;99.90;;;;;;5058301;28;20206;-42
2021/12/13 01:29:58;;;;;;;46.00;16.03;;;8.70;99.90;;;;;;5069633;28;20214;-43
2021/12/13 01:32:26;;;;;;;47.03;16.17;;;8.70;99.90;;;;;;5076195;28;20569;-42
2021/12/13 01:34:54;;;;;;;51.17;17.10;;;8.70;99.90;;;;;;5064510;28;20272;-43
2021/12/13 01:37:21;;;;;;;44.00;15.47;;;8.70;99.90;;;;;;5079485;28;20674;-43
2021/12/13 01:39:52;;;;;;;40.13;15.60;;;8.70;99.90;;;;;;5060602;28;20225;-43
2021/12/13 01:42:22;;;;;;;44.50;15.97;;;8.70;99.90;;;;;;5060377;28;20205;-42
2021/12/13 01:44:51;;;;;;;36.27;14.43;;;8.80;99.90;;;;;;5055057;28;20615;-43
2021/12/13 01:47:21;;;;;;;31.87;14.00;;;8.70;99.90;;;;;;5071605;28;20215;-42
2021/12/13 01:49:52;;;;;;;58.37;15.60;;;8.70;99.90;;;;;;5060841;28;20214;-44
2021/12/13 01:52:23;;;;;;;26.17;13.10;;;8.70;99.90;;;;;;5060424;28;20268;-43
2021/12/13 01:54:50;;;;;;;44.17;14.57;;;8.80;99.90;;;;;;5062046;28;20221;-43
2021/12/13 01:57:27;;;;;;;35.50;13.37;;;8.80;99.90;;;;;;5064500;28;20467;-43
2021/12/13 02:00:08;;;;;;;47.53;14.20;;;8.80;99.90;;;;;;5057033;28;20698;-44
2021/12/13 02:02:41;;;;;;;59.20;14.13;;;8.80;99.90;;;;;;5074494;28;20259;-42
2021/12/13 02:05:13;;;;;;;39.00;12.70;;;8.80;99.90;;;;;;5077863;28;20209;-42
2021/12/13 02:07:45;;;;;;;46.83;12.60;;;8.80;99.90;;;;;;5065393;28;20229;-42
2021/12/13 02:10:17;;;;;;;30.83;11.50;;;8.80;99.90;;;;;;5062704;28;20362;-45
2021/12/13 02:12:46;;;;;;;30.57;11.17;;;8.80;99.90;;;;;;5064959;28;20209;-42
2021/12/13 02:18:01;;;;;;;28.20;11.53;;;8.80;99.90;;;;;;5067877;28;20187;-43
2021/12/13 02:20:32;;;;;;;26.37;10.93;;;8.90;99.90;;;;;;5064502;28;20609;-45
2021/12/13 02:23:00;;;;;;;35.30;11.27;;;8.80;99.90;;;;;;5058038;28;20194;-49
2021/12/13 02:25:30;;;;;;;30.07;11.03;;;8.90;99.90;;;;;;5066935;28;20545;-44
2021/12/13 02:28:01;;;;;;;26.63;11.17;;;8.90;99.90;;;;;;5058601;28;20198;-45
2021/12/13 02:30:38;;;;;;;26.37;9.83;;;9.00;99.90;;;;;;5056256;28;20705;-45
2021/12/13 02:33:06;;;;;;;35.73;11.60;;;9.00;99.90;;;;;;5070508;28;20229;-44
2021/12/13 02:35:38;;;;;;;33.20;10.57;;;9.00;99.90;;;;;;5068730;28;20202;-44
2021/12/13 02:38:07;;;;;;;28.20;10.23;;;9.00;99.90;;;;;;5070663;28;20194;-43
2021/12/13 02:40:35;;;;;;;33.20;10.23;;;9.00;99.90;;;;;;5061818;28;20218;-44
2021/12/13 02:43:03;;;;;;;22.73;9.63;;;9.00;99.90;;;;;;5065712;28;20285;-42
2021/12/13 02:45:42;;;;;;;23.90;10.10;;;9.00;99.90;;;;;;5057376;28;20198;-42
2021/12/13 02:48:13;;;;;;;24.67;9.00;;;9.10;99.90;;;;;;5068655;28;21147;-43
2021/12/13 02:50:46;;;;;;;25.97;9.17;;;9.10;99.90;;;;;;5062937;28;20466;-44
2021/12/13 02:53:17;;;;;;;21.00;7.33;;;9.10;99.90;;;;;;5064190;28;20210;-44
2021/12/13 02:55:44;;;;;;;20.83;7.87;;;9.10;99.90;;;;;;5062864;28;20199;-43
2021/12/13 02:58:14;;;;;;;16.53;7.07;;;9.10;99.90;;;;;;5064752;28;20281;-47
2021/12/13 03:00:48;;;;;;;14.63;7.13;;;9.10;99.90;;;;;;5059090;28;20215;-44
2021/12/13 03:03:20;;;;;;;15.93;6.33;;;9.20;99.90;;;;;;5069632;28;20209;-43
2021/12/13 03:05:51;;;;;;;15.63;6.10;;;9.20;99.90;;;;;;5073957;28;20191;-43
2021/12/13 03:08:23;;;;;;;12.27;6.20;;;9.20;99.90;;;;;;5065966;28;20199;-45
2021/12/13 03:10:54;;;;;;;13.33;6.30;;;9.20;99.90;;;;;;5064348;28;20297;-43
2021/12/13 03:13:21;;;;;;;15.70;6.63;;;9.20;99.90;;;;;;5062840;28;20647;-45
2021/12/13 03:15:52;;;;;;;20.67;7.67;;;9.20;99.90;;;;;;5055057;28;20199;-42
2021/12/13 03:18:23;;;;;;;20.73;7.47;;;9.20;99.90;;;;;;5075115;28;20202;-46
2021/12/13 03:21:08;;;;;;;15.00;6.57;;;9.20;99.90;;;;;;5070919;28;20203;-42
2021/12/13 03:23:52;;;;;;;20.27;7.60;;;9.30;99.90;;;;;;5060847;28;20199;-45
2021/12/13 03:26:43;;;;;;;21.70;7.83;;;9.30;99.90;;;;;;5058762;28;20207;-44
2021/12/13 03:29:16;;;;;;;18.60;6.97;;;9.30;99.90;;;;;;5064062;28;20586;-45
2021/12/13 03:31:46;;;;;;;18.23;6.83;;;9.30;99.90;;;;;;5072052;28;20292;-44
2021/12/13 03:34:16;;;;;;;24.47;8.13;;;9.30;99.90;;;;;;5067822;28;20227;-42
2021/12/13 03:36:51;;;;;;;21.67;7.90;;;9.40;99.90;;;;;;5070793;28;20876;-42
2021/12/13 03:39:23;;;;;;;22.73;7.87;;;9.40;99.90;;;;;;5062349;28;20595;-44
2021/12/13 03:41:53;;;;;;;17.97;7.30;;;9.40;99.90;;;;;;5083092;28;20205;-43
2021/12/13 03:44:23;;;;;;;23.73;8.00;;;9.40;99.90;;;;;;5081577;28;20260;-46
2021/12/13 03:46:54;;;;;;;20.13;7.27;;;9.40;99.90;;;;;;5054777;28;20229;-42
2021/12/13 03:49:22;;;;;;;17.37;7.40;;;9.40;99.90;;;;;;5075869;28;20900;-43
2021/12/13 03:51:54;;;;;;;18.83;7.60;;;9.40;99.90;;;;;;5075353;28;20225;-43
2021/12/13 03:54:27;;;;;;;17.03;7.90;;;9.40;99.90;;;;;;5058428;28;20206;-42
2021/12/13 03:56:55;;;;;;;23.73;8.00;;;9.40;99.90;;;;;;5063630;28;20203;-43
2021/12/13 03:59:27;;;;;;;23.17;8.40;;;9.50;99.90;;;;;;5061037;28;20226;-45
2021/12/13 04:01:57;;;;;;;26.80;7.77;;;9.50;99.90;;;;;;5062646;28;20678;-44
2021/12/13 04:04:29;;;;;;;23.27;8.00;;;9.50;99.90;;;;;;5066477;28;20275;-43
2021/12/13 04:06:58;;;;;;;21.60;8.53;;;9.50;99.90;;;;;;5069862;28;20265;-43
2021/12/13 04:09:28;;;;;;;30.30;9.73;;;9.50;99.90;;;;;;5063292;28;20230;-43
2021/12/13 04:11:58;;;;;;;26.73;10.37;;;9.50;99.90;;;;;;5063734;28;20231;-43
2021/12/13 04:14:30;;;;;;;30.30;9.63;;;9.60;99.90;;;;;;5059853;28;20213;-43
2021/12/13 04:17:07;;;;;;;25.60;10.73;;;9.60;99.90;;;;;;5063367;28;20260;-46
2021/12/13 04:19:51;;;;;;;28.67;8.27;;;9.60;99.90;;;;;;5058220;28;21048;-42
2021/12/13 04:22:20;;;;;;;42.90;11.93;;;9.60;99.90;;;;;;5064314;28;20191;-43
2021/12/13 04:24:50;;;;;;;36.97;10.33;;;9.60;99.90;;;;;;5062259;28;20201;-42
2021/12/13 04:27:21;;;;;;;33.90;10.37;;;9.60;99.90;;;;;;5060039;28;20194;-44
2021/12/13 04:29:50;;;;;;;36.63;11.00;;;9.60;99.90;;;;;;5062568;28;20214;-42
2021/12/13 04:32:23;;;;;;;39.63;12.07;;;9.60;99.90;;;;;;5061314;28;20237;-44
2021/12/13 04:34:52;;;;;;;40.00;11.40;;;9.70;99.90;;;;;;5061973;28;20573;-44
2021/12/13 04:37:22;;;;;;;40.13;11.90;;;9.70;99.90;;;;;;5066725;28;20596;-45
2021/12/13 04:39:56;;;;;;;33.90;11.17;;;9.70;99.90;;;;;;5068960;28;20229;-42
2021/12/13 04:42:25;;;;;;;30.33;11.17;;;9.70;99.90;;;;;;5060135;28;20193;-45
2021/12/13 04:44:57;;;;;;;31.90;12.23;;;9.70;99.90;;;;;;5067136;28;20203;-44
2021/12/13 04:47:27;;;;;;;37.87;11.80;;;9.70;99.90;;;;;;5060710;28;20690;-44
2021/12/13 04:50:02;;;;;;;45.83;13.50;;;9.70;99.90;;;;;;5056741;28;20230;-44
2021/12/13 04:52:32;;;;;;;38.47;12.13;;;9.70;99.90;;;;;;5067743;28;20213;-42
2021/12/13 04:55:02;;;;;;;38.63;11.60;;;9.70;99.90;;;;;;5061680;28;20195;-43
2021/12/13 04:57:29;;;;;;;40.90;12.03;;;9.70;99.90;;;;;;5064703;28;20206;-43
2021/12/13 04:59:59;;;;;;;36.77;12.17;;;9.80;99.90;;;;;;5059405;28;20315;-47
2021/12/13 05:02:26;;;;;;;34.60;12.37;;;9.80;99.90;;;;;;5065974;28;20288;-44
2021/12/13 05:04:55;;;;;;;53.13;14.43;;;9.80;99.90;;;;;;5072140;28;20673;-43
2021/12/13 05:07:24;;;;;;;34.40;11.57;;;9.80;99.90;;;;;;5060216;28;20658;-43
2021/12/13 05:09:52;;;;;;;30.30;10.67;;;9.80;99.90;;;;;;5066496;28;20245;-42
2021/12/13 05:12:25;;;;;;;33.57;10.57;;;9.80;99.90;;;;;;5067958;28;20590;-42
2021/12/13 05:14:55;;;;;;;24.60;9.40;;;9.80;99.90;;;;;;5062047;28;20206;-42
2021/12/13 05:17:25;;;;;;;30.10;10.67;;;9.80;99.90;;;;;;5059739;28;20206;-45
2021/12/13 05:19:55;;;;;;;22.67;9.20;;;9.80;99.90;;;;;;5079153;28;20220;-42
2021/12/13 05:22:23;;;;;;;30.60;10.57;;;9.80;99.90;;;;;;5057579;28;20245;-43
2021/12/13 05:24:53;;;;;;;33.33;11.37;;;9.90;99.90;;;;;;5064772;28;20836;-42
2021/12/13 05:27:30;;;;;;;30.53;10.23;;;9.90;99.90;;;;;;5061252;28;20667;-44
2021/12/13 05:30:10;;;;;;;31.20;10.87;;;9.90;99.90;;;;;;5083806;28;20233;-43
2021/12/13 05:32:39;;;;;;;32.47;9.90;;;9.90;99.90;;;;;;5078824;28;20242;-43
2021/12/13 05:35:17;;;;;;;33.03;10.77;;;9.90;99.90;;;;;;5079472;28;20214;-44
2021/12/13 05:37:46;;;;;;;25.67;10.40;;;9.90;99.90;;;;;;5060705;28;20214;-43
2021/12/13 05:40:18;;;;;;;29.20;10.20;;;9.90;99.90;;;;;;5071441;28;20225;-43
2021/12/13 05:42:48;;;;;;;29.33;10.70;;;9.90;99.90;;;;;;5063821;28;20201;-42
2021/12/13 05:45:19;;;;;;;33.90;12.93;;;9.90;99.90;;;;;;5077043;28;20247;-43
2021/12/13 05:47:58;;;;;;;26.77;9.93;;;10.00;99.90;;;;;;5069710;28;20205;-45
2021/12/13 05:50:34;;;;;;;24.83;9.90;;;10.00;99.90;;;;;;5071005;28;20209;-46
2021/12/13 05:53:06;;;;;;;30.67;10.97;;;10.00;99.90;;;;;;5063140;28;20226;-43
2021/12/13 05:55:49;;;;;;;29.80;11.00;;;10.00;99.90;;;;;;5073126;28;20209;-43
2021/12/13 05:58:34;;;;;;;28.33;10.67;;;10.00;99.90;;;;;;5062965;28;20211;-45
2021/12/13 06:01:10;;;;;;;28.23;10.43;;;10.00;99.90;;;;;;5057854;28;20649;-42
2021/12/13 06:03:40;;;;;;;34.20;11.30;;;10.00;99.90;;;;;;5074777;28;20677;-43
2021/12/13 06:06:10;;;;;;;37.33;11.27;;;10.00;99.90;;;;;;5068578;28;20206;-46
2021/12/13 06:08:42;;;;;;;42.43;12.40;;;10.00;99.90;;;;;;5062920;28;20285;-43
2021/12/13 06:11:12;;;;;;;32.33;12.10;;;10.00;99.90;;;;;;5077796;28;20178;-44
2021/12/13 06:13:58;;;;;;;27.40;10.63;;;10.00;99.90;;;;;;5066203;28;20910;-44
2021/12/13 06:16:48;;;;;;;38.83;13.00;;;10.00;99.90;;;;;;5072276;28;20194;-43
2021/12/13 06:19:21;;;;;;;35.47;11.97;;;10.00;99.90;;;;;;5075946;28;20210;-44
2021/12/13 06:21:55;;;;;;;32.83;10.57;;;10.00;99.90;;;;;;5060341;28;20197;-42
2021/12/13 06:24:28;;;;;;;33.73;10.17;;;10.00;99.90;;;;;;5066736;28;20213;-44
2021/12/13 06:27:10;;;;;;;40.23;12.23;;;10.00;99.90;;;;;;5066663;28;20206;-44
2021/12/13 06:30:03;;;;;;;35.13;11.40;;;10.00;99.90;;;;;;5067444;28;20215;-42
2021/12/13 06:32:40;;;;;;;40.47;12.93;;;10.00;99.90;;;;;;5070819;28;20210;-44
2021/12/13 06:35:30;;;;;;;35.07;12.33;;;10.10;99.90;;;;;;5071522;28;20210;-42
2021/12/13 06:37:58;;;;;;;35.87;12.00;;;10.10;99.90;;;;;;5060050;28;22234;-46
2021/12/13 06:40:29;;;;;;;42.00;12.10;;;10.10;99.90;;;;;;5057746;28;20237;-42
2021/12/13 06:42:57;;;;;;;38.37;12.17;;;10.10;99.90;;;;;;5071909;28;20206;-42
2021/12/13 06:45:31;;;;;;;42.40;12.30;;;10.10;99.90;;;;;;5074275;28;20189;-42
2021/12/13 06:48:01;;;;;;;38.50;12.13;;;10.10;99.90;;;;;;5074389;28;20214;-42
2021/12/13 06:50:31;;;;;;;29.43;11.20;;;10.10;99.90;;;;;;5065060;28;20812;-42
2021/12/13 06:53:11;;;;;;;35.60;14.07;;;10.10;99.90;;;;;;5065294;28;20808;-43
2021/12/13 06:55:38;;;;;;;35.13;11.57;;;10.10;99.90;;;;;;5060787;28;20224;-41
2021/12/13 06:58:16;;;;;;;37.40;12.70;;;10.10;99.90;;;;;;5082973;28;20194;-44
2021/12/13 07:00:45;;;;;;;34.73;12.87;;;10.10;99.90;;;;;;5066211;28;20233;-42
2021/12/13 07:03:19;;;;;;;33.03;11.37;;;10.10;99.90;;;;;;5061726;28;20198;-44
2021/12/13 07:05:52;;;;;;;23.37;9.20;;;10.10;99.90;;;;;;5082325;28;20206;-42
2021/12/13 07:08:22;;;;;;;28.30;10.97;;;10.10;99.90;;;;;;5065608;28;20209;-43
2021/12/13 07:10:59;;;;;;;24.73;9.70;;;10.10;99.90;;;;;;5068107;28;20222;-42
2021/12/13 07:13:29;;;;;;;26.17;9.93;;;10.10;99.90;;;;;;5065133;28;20573;-44
2021/12/13 07:16:01;;;;;;;33.47;9.73;;;10.10;99.90;;;;;;5066846;28;20571;-43
2021/12/13 07:18:30;;;;;;;26.30;9.90;;;10.10;99.90;;;;;;5060718;28;20892;-42
2021/12/13 07:21:06;;;;;;;23.37;10.33;;;10.10;99.90;;;;;;5062776;28;20199;-43
2021/12/13 07:24:00;;;;;;;28.53;9.17;;;10.10;99.90;;;;;;5060685;28;20677;-44
2021/12/13 07:26:38;;;;;;;37.23;12.27;;;10.10;99.90;;;;;;5052993;28;20317;-42
2021/12/13 07:29:08;;;;;;;20.47;8.53;;;10.20;99.90;;;;;;5070342;28;20221;-42
2021/12/13 07:31:39;;;;;;;22.33;8.97;;;10.10;99.90;;;;;;5073113;28;20221;-42
2021/12/13 07:34:17;;;;;;;24.43;8.97;;;10.20;99.90;;;;;;5066044;28;20201;-46
2021/12/13 07:36:52;;;;;;;18.33;7.67;;;10.20;99.90;;;;;;5077522;28;20202;-43
2021/12/13 07:39:20;;;;;;;19.37;7.53;;;10.20;99.90;;;;;;5070683;28;20213;-42
2021/12/13 07:41:50;;;;;;;15.43;8.13;;;10.20;99.90;;;;;;5065378;28;20210;-43
2021/12/13 07:44:35;;;;;;;18.20;7.13;;;10.20;99.90;;;;;;5054951;28;20847;-43
2021/12/13 07:47:06;;;;;;;17.70;7.57;;;10.20;99.90;;;;;;5068206;28;20216;-43
2021/12/13 07:49:36;;;;;;;17.70;8.00;;;10.20;99.90;;;;;;5061458;28;20225;-42
2021/12/13 07:52:06;;;;;;;12.30;6.93;;;10.20;99.90;;;;;;5062941;28;20213;-41
2021/12/13 07:54:39;;;;;;;13.40;7.37;;;10.20;99.90;;;;;;5061003;28;20199;-43
2021/12/13 07:57:17;;;;;;;18.10;8.23;;;10.20;99.90;;;;;;5070757;28;20585;-44
2021/12/13 07:59:44;;;;;;;14.23;8.40;;;10.20;99.90;;;;;;5060271;28;20230;-43
2021/12/13 08:02:25;;;;;;;19.17;8.23;;;10.20;99.90;;;;;;5066409;28;20202;-45
2021/12/13 08:04:56;;;;;;;13.67;7.70;;;10.20;99.90;;;;;;5067513;28;20260;-46
2021/12/13 08:07:26;;;;;;;15.13;8.23;;;10.20;99.90;;;;;;5067497;28;20899;-42
2021/12/13 08:09:56;;;;;;;16.03;8.07;;;10.20;99.90;;;;;;5066965;28;20214;-46
2021/12/13 08:12:26;;;;;;;11.97;7.30;;;10.20;99.90;;;;;;5075349;28;20210;-42
2021/12/13 08:14:57;;;;;;;12.77;7.60;;;10.20;99.90;;;;;;5063928;28;20549;-44
2021/12/13 08:17:31;;;;;;;15.00;8.00;;;10.20;99.90;;;;;;5069990;28;20182;-45
2021/12/13 08:20:00;;;;;;;13.07;7.57;;;10.20;99.90;;;;;;5074136;28;20209;-42
2021/12/13 08:22:29;;;;;;;18.60;7.90;;;10.20;99.90;;;;;;5069196;28;20422;-42
2021/12/13 08:24:59;;;;;;;15.70;8.80;;;10.20;99.90;;;;;;5069504;28;20207;-43
2021/12/13 08:27:33;;;;;;;15.17;8.57;;;10.20;99.90;;;;;;5060925;28;20194;-43
2021/12/13 08:30:09;;;;;;;15.10;8.83;;;10.20;99.90;;;;;;5067700;28;20243;-43
2021/12/13 08:32:38;;;;;;;14.83;8.83;;;10.20;99.90;;;;;;5063563;28;20535;-43
2021/12/13 08:35:07;;;;;;;17.17;8.87;;;10.20;99.90;;;;;;5071689;28;20198;-43
2021/12/13 08:37:36;;;;;;;16.07;9.33;;;10.30;99.90;;;;;;5067378;28;20205;-44
2021/12/13 08:40:11;;;;;;;14.40;7.77;;;10.30;99.90;;;;;;5075325;28;20217;-42
2021/12/13 08:42:42;;;;;;;15.30;8.87;;;10.30;99.90;;;;;;5073911;28;20197;-42
2021/12/13 08:45:16;;;;;;;17.47;9.63;;;10.30;99.90;;;;;;5055423;28;20198;-42
2021/12/13 08:47:48;;;;;;;15.67;9.80;;;10.30;99.90;;;;;;5074737;28;20212;-42
2021/12/13 08:50:21;;;;;;;21.20;10.37;;;10.30;99.90;;;;;;5059817;28;20814;-42
2021/12/13 08:52:53;;;;;;;23.67;11.30;;;10.30;99.90;;;;;;5067229;28;20229;-42
2021/12/13 08:55:27;;;;;;;27.47;12.77;;;10.30;99.90;;;;;;5061913;28;20218;-43
2021/12/13 08:57:58;;;;;;;22.63;11.67;;;10.30;99.90;;;;;;5067214;28;20195;-43
2021/12/13 09:00:35;;;;;;;41.03;17.00;;;10.30;99.90;;;;;;5059293;28;20218;-42
2021/12/13 09:03:27;;;;;;;31.17;13.33;;;10.30;99.90;;;;;;5059496;28;20236;-44
2021/12/13 09:06:17;;;;;;;27.73;13.53;;;10.30;99.90;;;;;;5071248;28;20209;-45
2021/12/13 09:08:48;;;;;;;19.20;11.47;;;10.40;99.90;;;;;;5059809;28;20218;-42
2021/12/13 09:11:25;;;;;;;20.50;11.60;;;10.40;99.90;;;;;;5074548;28;20596;-44
2021/12/13 09:13:56;;;;;;;24.67;12.73;;;10.40;99.90;;;;;;5073532;28;20253;-43
2021/12/13 09:16:28;;;;;;;21.13;12.57;;;10.40;99.90;;;;;;5067597;28;20255;-43
2021/12/13 09:19:15;;;;;;;27.10;13.70;;;10.40;99.90;;;;;;5074739;28;20230;-42
2021/12/13 09:21:55;;;;;;;19.70;11.47;;;10.40;99.90;;;;;;5065780;28;20201;-44
2021/12/13 09:24:29;;;;;;;33.60;14.67;;;10.40;99.90;;;;;;5070770;28;20569;-43
2021/12/13 09:27:08;;;;;;;30.53;14.63;;;10.50;99.90;;;;;;5074779;28;20203;-43
2021/12/13 09:29:59;;;;;;;25.03;14.43;;;10.50;99.90;;;;;;5073739;28;20224;-43
2021/12/13 09:32:34;;;;;;;24.23;13.57;;;10.50;99.90;;;;;;5061859;28;20209;-41
2021/12/13 09:35:29;;;;;;;41.50;17.80;;;10.50;99.90;;;;;;5070162;28;20202;-46
2021/12/13 09:37:59;;;;;;;32.37;14.70;;;10.50;99.90;;;;;;5072705;28;20191;-44
2021/12/13 09:40:33;;;;;;;33.83;16.13;;;10.50;99.90;;;;;;5076023;28;20593;-43
2021/12/13 09:43:00;;;;;;;26.43;14.03;;;10.50;99.90;;;;;;5071487;28;20670;-44
2021/12/13 09:45:32;;;;;;;27.13;13.93;;;10.60;99.90;;;;;;5063903;28;20214;-45
2021/12/13 09:47:59;;;;;;;27.40;16.00;;;10.60;99.90;;;;;;5062539;28;20211;-42
2021/12/13 09:50:32;;;;;;;25.57;14.73;;;10.60;99.90;;;;;;5060702;28;20229;-43
2021/12/13 09:53:01;;;;;;;24.63;12.83;;;10.60;99.90;;;;;;5066571;28;20222;-43
2021/12/13 09:55:32;;;;;;;23.40;12.33;;;10.60;99.90;;;;;;5071685;28;20199;-44
2021/12/13 09:58:02;;;;;;;19.53;11.23;;;10.60;99.90;;;;;;5074384;28;20761;-42
2021/12/13 10:00:34;;;;;;;22.20;12.37;;;10.60;99.90;;;;;;5072994;28;20210;-43
2021/12/13 10:03:05;;;;;;;22.10;12.23;;;10.60;99.90;;;;;;5064432;28;20192;-44
2021/12/13 10:05:36;;;;;;;26.00;12.77;;;10.60;99.90;;;;;;5077880;28;20903;-43
2021/12/13 10:08:07;;;;;;;21.67;12.17;;;10.60;99.90;;;;;;5071409;28;20206;-43
2021/12/13 10:10:38;;;;;;;19.50;12.00;;;10.60;99.90;;;;;;5067184;28;20206;-43
2021/12/13 10:13:11;;;;;;;17.40;11.03;;;10.60;99.90;;;;;;5074876;28;20211;-42
2021/12/13 10:15:50;;;;;;;19.17;11.47;;;10.60;99.90;;;;;;5070578;28;20206;-42
2021/12/13 10:18:19;;;;;;;17.07;10.07;;;10.60;99.90;;;;;;5065882;28;20460;-43
2021/12/13 10:20:52;;;;;;;18.37;10.87;;;10.60;99.90;;;;;;5063577;28;20581;-44
2021/12/13 10:23:30;;;;;;;16.53;10.57;;;10.70;99.90;;;;;;5061887;28;20201;-43
2021/12/13 10:26:00;;;;;;;19.90;9.67;;;10.60;99.90;;;;;;5070552;28;20197;-42
2021/12/13 10:28:30;;;;;;;15.63;10.30;;;10.70;99.90;;;;;;5071857;28;20612;-42
2021/12/13 10:31:01;;;;;;;18.33;10.50;;;10.60;99.90;;;;;;5071723;28;20214;-45
2021/12/13 10:33:29;;;;;;;16.17;10.13;;;10.70;99.90;;;;;;5071897;28;20214;-44
2021/12/13 10:36:00;;;;;;;17.27;10.13;;;10.70;99.90;;;;;;5063863;28;20206;-41
2021/12/13 10:38:30;;;;;;;22.83;11.80;;;10.70;99.90;;;;;;5067193;28;20590;-43
2021/12/13 10:41:00;;;;;;;17.00;10.40;;;10.70;99.90;;;;;;5076054;28;20763;-46
2021/12/13 10:43:30;;;;;;;19.10;10.90;;;10.70;99.90;;;;;;5069542;28;20194;-43
2021/12/13 10:46:00;;;;;;;18.17;9.70;;;10.70;99.90;;;;;;5070800;28;20199;-41
2021/12/13 10:48:31;;;;;;;19.03;10.40;;;10.80;99.90;;;;;;5071635;28;20206;-44
2021/12/13 10:51:05;;;;;;;14.17;9.50;;;10.70;99.90;;;;;;5058151;28;20206;-42
2021/12/13 10:53:34;;;;;;;16.60;9.40;;;10.80;99.90;;;;;;5063815;28;20216;-42
2021/12/13 10:56:05;;;;;;;16.53;9.73;;;10.80;99.90;;;;;;5070435;28;20190;-42
2021/12/13 10:58:35;;;;;;;22.07;11.07;;;10.80;99.90;;;;;;5068026;28;20206;-46
2021/12/13 11:01:07;;;;;;;22.60;11.53;;;10.80;99.90;;;;;;5065160;28;20197;-43
2021/12/13 11:03:36;;;;;;;34.30;12.80;;;10.80;99.90;;;;;;5066506;28;20190;-44
2021/12/13 11:06:07;;;;;;;22.97;11.87;;;10.90;99.90;;;;;;5063440;28;20289;-45
2021/12/13 11:08:41;;;;;;;25.43;11.40;;;10.90;99.90;;;;;;5069864;28;20666;-45
2021/12/13 11:11:15;;;;;;;21.43;9.70;;;10.90;99.90;;;;;;5065071;28;20206;-42
2021/12/13 11:13:42;;;;;;;25.00;10.10;;;10.90;99.90;;;;;;5069415;28;20238;-43
2021/12/13 11:16:18;;;;;;;23.90;9.57;;;10.90;99.90;;;;;;5063742;28;22097;-42
2021/12/13 11:18:45;;;;;;;14.00;8.43;;;10.90;99.90;;;;;;5066480;28;20603;-43
2021/12/13 11:21:18;;;;;;;15.50;9.50;;;10.90;99.90;;;;;;5073344;28;20251;-42
2021/12/13 11:23:45;;;;;;;13.70;7.80;;;10.90;99.90;;;;;;5055957;28;20206;-42
2021/12/13 11:26:16;;;;;;;11.97;8.30;;;10.80;99.90;;;;;;5069764;28;20921;-44
2021/12/13 11:28:43;;;;;;;14.97;7.43;;;10.80;99.90;;;;;;5069693;28;20194;-42
2021/12/13 11:31:13;;;;;;;16.23;7.83;;;10.80;99.90;;;;;;5073938;28;20890;-44
2021/12/13 11:34:26;;;;;;;80.13;36.50;;;10.80;99.90;;;;;;5066531;28;20210;-44
2021/12/13 11:37:28;;;;;;;12.17;8.10;;;10.80;99.90;;;;;;5065729;28;20202;-42
2021/12/13 11:40:20;;;;;;;10.37;7.43;;;10.80;99.90;;;;;;5070907;28;20214;-46
2021/12/13 11:43:11;;;;;;;15.27;8.37;;;10.80;99.90;;;;;;5066271;28;20210;-45
2021/12/13 11:46:07;;;;;;;13.73;7.70;;;10.70;99.90;;;;;;5063105;28;20250;-42
2021/12/13 11:48:57;;;;;;;11.97;8.03;;;10.70;99.90;;;;;;5058466;28;20205;-46
2021/12/13 11:51:57;;;;;;;12.67;7.57;;;10.70;99.90;;;;;;5076326;28;20217;-43
2021/12/13 11:55:00;;;;;;;14.03;8.27;;;10.70;99.90;;;;;;5058596;28;20206;-44
2021/12/13 11:57:55;;;;;;;16.33;10.10;;;10.70;99.90;;;;;;4995978;28;20224;-43
2021/12/13 12:00:36;;;;;;;16.93;9.30;;;10.60;99.90;;;;;;5058676;28;20619;-44
2021/12/13 12:03:42;;;;;;;12.67;8.47;;;10.70;99.90;;;;;;5073944;28;20893;-43
2021/12/13 12:06:55;;;;;;;17.10;10.53;;;10.60;99.90;;;;;;5067801;28;20217;-44
2021/12/13 12:09:36;;;;;;;15.83;9.30;;;10.60;99.90;;;;;;5068011;28;20230;-45
2021/12/13 12:12:32;;;;;;;12.30;8.47;;;10.60;99.90;;;;;;5076647;28;20675;-44
2021/12/13 12:15:01;;;;;;;16.77;9.90;;;10.60;99.90;;;;;;5064361;28;20558;-45
2021/12/13 12:17:29;;;;;;;16.53;9.87;;;10.50;99.90;;;;;;5065412;28;21136;-43
2021/12/13 12:19:56;;;;;;;13.70;9.83;;;10.50;99.90;;;;;;5070042;28;20232;-44
2021/12/13 12:22:27;;;;;;;15.50;10.10;;;10.60;99.90;;;;;;5059747;28;20210;-44
2021/12/13 12:24:57;;;;;;;23.30;11.73;;;10.50;99.90;;;;;;5071208;28;20722;-43
2021/12/13 12:27:27;;;;;;;16.60;9.90;;;10.50;99.90;;;;;;5059138;28;20277;-43
2021/12/13 12:29:55;;;;;;;17.43;10.63;;;10.60;99.90;;;;;;5066944;28;20227;-42
2021/12/13 12:32:29;;;;;;;23.70;12.30;;;10.50;99.90;;;;;;5066739;28;20190;-43
2021/12/13 12:34:59;;;;;;;19.47;11.10;;;10.50;99.90;;;;;;5070107;28;20231;-44
2021/12/13 12:38:03;;;;;;;17.30;10.30;;;10.60;99.90;;;;;;5061592;28;20700;-42
2021/12/13 12:40:35;;;;;;;21.03;11.17;;;10.50;99.90;;;;;;5059379;28;20932;-45
2021/12/13 12:43:06;;;;;;;18.20;10.30;;;10.50;99.90;;;;;;5051804;28;20687;-45
2021/12/13 12:45:38;;;;;;;25.27;11.30;;;10.50;99.90;;;;;;5064478;28;20205;-45
2021/12/13 12:48:13;;;;;;;16.97;10.93;;;10.50;99.90;;;;;;5069994;28;20594;-42
2021/12/13 12:51:05;;;;;;;17.27;10.10;;;10.50;99.90;;;;;;5064756;28;21165;-42
2021/12/13 12:53:38;;;;;;;17.67;10.70;;;10.50;99.90;;;;;;5069577;28;20210;-43
2021/12/13 12:56:08;;;;;;;22.83;11.23;;;10.50;99.90;;;;;;5070377;28;20232;-42
2021/12/13 12:58:38;;;;;;;15.40;11.63;;;10.50;99.90;;;;;;5054886;28;20214;-43
2021/12/13 13:01:15;;;;;;;24.17;12.77;;;10.50;99.90;;;;;;5071998;28;20202;-45
2021/12/13 13:03:44;;;;;;;21.47;12.50;;;10.50;99.90;;;;;;5063372;28;20206;-44
2021/12/13 13:06:14;;;;;;;23.03;11.67;;;10.50;99.90;;;;;;5072981;28;20659;-43
2021/12/13 13:08:44;;;;;;;23.10;12.17;;;10.50;99.90;;;;;;5062900;28;20230;-44
2021/12/13 13:11:31;;;;;;;15.40;9.93;;;10.50;99.90;;;;;;5074272;28;20198;-42